Time;durP1;ratioP1;P1;durP2;ratioP2;P2;SDS_P1;SDS_P2;PMS_P1;PMS_P2;Temp;Humidity;BMP_temperature;BMP_pressure;BME280_temperature;BME280_humidity;BME280_pressure;Samples;Min_cycle;Max_cycle;Signal;HPM_P1;HPM_P2
2021/03/24 00:04:52;;;;;;;10.85;6.30;;;;;;;3.78;79.20;99315.73;239505;1196;23308;-74
2021/03/24 00:09:55;;;;;;;10.33;6.30;;;;;;;3.79;79.50;99316.52;239446;1199;23263;-75
2021/03/24 00:14:58;;;;;;;10.83;6.50;;;;;;;3.80;79.29;99318.14;239237;1199;23111;-75
2021/03/24 00:20:03;;;;;;;9.90;6.00;;;;;;;3.81;79.21;99301.22;239542;1196;23139;-74
2021/03/24 00:25:09;;;;;;;9.90;6.85;;;;;;;3.79;79.00;99314.67;239362;1196;23108;-73
2021/03/24 00:30:14;;;;;;;13.63;7.03;;;;;;;3.77;78.66;99312.25;239459;1199;24727;-74
2021/03/24 00:35:17;;;;;;;11.25;6.60;;;;;;;3.79;79.08;99312.02;239468;1196;23167;-74
2021/03/24 00:40:29;;;;;;;11.50;6.90;;;;;;;3.77;78.90;99320.20;239509;1196;23113;-74
2021/03/24 00:45:35;;;;;;;11.33;6.50;;;;;;;3.78;79.06;99310.43;239489;1196;23111;-74
2021/03/24 00:50:37;;;;;;;12.53;7.40;;;;;;;3.81;78.85;99314.47;239471;1196;26080;-74
2021/03/24 00:55:40;;;;;;;12.00;7.35;;;;;;;3.83;79.00;99304.42;239508;1196;23106;-73
2021/03/24 01:00:44;;;;;;;10.27;6.23;;;;;;;3.84;78.68;99314.80;239464;1196;23112;-73
2021/03/24 01:05:49;;;;;;;14.63;6.83;;;;;;;3.82;78.41;99308.11;239502;1196;23500;-73
2021/03/24 01:10:54;;;;;;;11.67;6.73;;;;;;;3.83;78.79;99305.22;239215;1196;23106;-74
2021/03/24 01:15:57;;;;;;;10.30;7.05;;;;;;;3.82;78.33;99300.16;239624;1196;23100;-73
2021/03/24 01:21:00;;;;;;;12.13;6.73;;;;;;;3.79;78.32;99304.06;239423;1196;23202;-74
2021/03/24 01:26:03;;;;;;;11.63;6.97;;;;;;;3.79;78.77;99304.06;239409;1196;23096;-73
2021/03/24 01:31:07;;;;;;;13.30;8.50;;;;;;;3.82;78.72;99298.33;239317;1196;23181;-74
2021/03/24 01:36:10;;;;;;;12.20;7.63;;;;;;;3.82;78.57;99290.38;239406;1199;23251;-74
2021/03/24 01:41:13;;;;;;;13.10;7.70;;;;;;;3.83;78.65;99294.63;239410;1196;23114;-74
2021/03/24 01:46:19;;;;;;;13.60;7.40;;;;;;;3.84;78.42;99296.24;239404;1196;23127;-73
2021/03/24 01:51:41;;;;;;;15.20;7.20;;;;;;;3.84;78.48;99295.45;239268;1196;23202;-74
2021/03/24 01:56:52;;;;;;;12.60;7.15;;;;;;;3.79;78.32;99296.12;239373;1196;27733;-74
2021/03/24 02:01:56;;;;;;;14.00;7.27;;;;;;;3.75;78.34;99305.59;239057;1196;27338;-73
2021/03/24 02:07:09;;;;;;;11.40;7.20;;;;;;;3.71;78.40;99305.23;239546;1199;23103;-74
2021/03/24 02:12:21;;;;;;;12.40;7.23;;;;;;;3.73;78.48;99305.80;239168;1198;27211;-74
2021/03/24 02:17:28;;;;;;;11.50;7.57;;;;;;;3.71;78.60;99312.39;239584;1196;23162;-72
2021/03/24 02:22:36;;;;;;;10.70;6.45;;;;;;;3.68;78.78;99318.13;239252;1196;23098;-73
2021/03/24 02:27:48;;;;;;;12.90;7.00;;;;;;;3.67;78.48;99316.53;239154;1196;23128;-73
2021/03/24 02:32:57;;;;;;;12.83;7.13;;;;;;;3.65;78.70;99307.98;239543;1196;26221;-73
2021/03/24 02:38:04;;;;;;;10.80;6.65;;;;;;;3.61;78.47;99315.61;239310;1196;24565;-74
2021/03/24 02:43:12;;;;;;;9.85;6.20;;;;;;;3.63;78.56;99315.38;239546;1196;24469;-74
2021/03/24 02:48:21;;;;;;;11.40;6.63;;;;;;;3.63;78.63;99318.02;239465;1196;23125;-74
2021/03/24 02:53:31;;;;;;;10.67;7.10;;;;;;;3.63;78.57;99331.27;239276;1196;23095;-72
2021/03/24 02:58:35;;;;;;;12.20;6.50;;;;;;;3.64;78.64;99332.86;239269;1196;23092;-73
2021/03/24 03:03:42;;;;;;;10.37;6.43;;;;;;;3.64;78.41;99330.22;239647;1199;23183;-73
2021/03/24 03:09:04;;;;;;;11.53;7.10;;;;;;;3.66;78.27;99323.66;239851;1197;23106;-73
2021/03/24 03:14:14;;;;;;;11.20;6.80;;;;;;;3.64;78.46;99330.22;239097;1194;23112;-73
2021/03/24 03:19:35;;;;;;;11.07;7.00;;;;;;;3.64;78.27;99331.05;239723;1196;23095;-74
2021/03/24 03:24:46;;;;;;;13.75;6.70;;;;;;;3.64;78.70;99320.44;239461;1196;23267;-73
2021/03/24 03:29:51;;;;;;;13.93;7.33;;;;;;;3.64;78.39;99327.56;239462;1196;23234;-73
2021/03/24 03:35:03;;;;;;;10.70;6.67;;;;;;;3.64;78.57;99330.22;239879;1199;26443;-73
2021/03/24 03:40:12;;;;;;;14.30;7.30;;;;;;;3.63;77.97;99326.77;239511;1196;23105;-73
2021/03/24 03:45:15;;;;;;;12.30;7.30;;;;;;;3.63;78.00;99323.33;239517;1199;26011;-73
2021/03/24 03:50:23;;;;;;;11.93;7.80;;;;;;;3.62;78.02;99319.05;239386;1196;23195;-73
2021/03/24 03:56:04;;;;;;;13.00;6.77;;;;;;;3.60;78.20;99328.03;239740;1196;23108;-74
2021/03/24 04:01:27;;;;;;;12.40;6.80;;;;;;;3.58;78.05;99314.22;239459;1196;23113;-73
2021/03/24 04:06:36;;;;;;;11.70;6.70;;;;;;;3.59;78.38;99315.81;239611;1196;26182;-73
2021/03/24 04:11:48;;;;;;;14.90;7.03;;;;;;;3.56;78.31;99316.27;239540;1199;26009;-73
2021/03/24 04:16:53;;;;;;;13.25;6.55;;;;;;;3.53;77.91;99308.79;239442;1196;23138;-74
2021/03/24 04:22:00;;;;;;;9.20;5.80;;;;;;;3.56;78.14;99313.63;239428;1196;23138;-74
2021/03/24 04:27:05;;;;;;;10.00;5.50;;;;;;;3.60;78.03;99320.08;239354;1200;23136;-74
2021/03/24 04:32:09;;;;;;;10.93;5.83;;;;;;;3.59;77.90;99318.46;239611;1196;23609;-74
2021/03/24 04:37:30;;;;;;;13.90;6.80;;;;;;;3.58;78.28;99316.87;239455;1196;23237;-74
2021/03/24 04:43:03;;;;;;;8.85;5.60;;;;;;;3.57;78.17;99323.19;239767;1196;23101;-73
2021/03/24 04:48:16;;;;;;;9.73;6.67;;;;;;;3.58;78.04;99319.52;239360;1199;23102;-74
2021/03/24 04:53:22;;;;;;;12.10;5.75;;;;;;;3.57;77.93;99328.48;239556;1196;23211;-73
2021/03/24 04:58:31;;;;;;;10.95;6.20;;;;;;;3.56;77.66;99329.52;239318;1195;24734;-74
2021/03/24 05:03:39;;;;;;;10.10;6.13;;;;;;;3.60;78.12;99330.68;239374;1196;23161;-73
2021/03/24 05:08:44;;;;;;;11.00;6.50;;;;;;;3.64;78.17;99336.34;239440;1196;23266;-74
2021/03/24 05:13:58;;;;;;;11.95;5.80;;;;;;;3.67;78.21;99337.73;239641;1196;23149;-74
2021/03/24 05:19:01;;;;;;;11.20;6.13;;;;;;;3.68;78.06;99349.92;239422;1196;23103;-74
2021/03/24 05:24:06;;;;;;;9.80;5.43;;;;;;;3.70;77.85;99342.56;239538;1196;23399;-74
2021/03/24 05:29:17;;;;;;;8.50;5.80;;;;;;;3.73;77.70;99350.05;239021;1196;23137;-73
2021/03/24 05:34:28;;;;;;;11.30;6.47;;;;;;;3.80;77.60;99360.55;239442;1196;23102;-74
2021/03/24 05:39:33;;;;;;;9.27;5.60;;;;;;;3.86;77.39;99359.62;239315;1196;23109;-73
2021/03/24 05:44:44;;;;;;;10.33;5.87;;;;;;;3.86;77.47;99359.62;239489;1196;23616;-73
2021/03/24 05:49:58;;;;;;;11.30;6.70;;;;;;;3.96;77.62;99370.48;239290;1196;23112;-72
2021/03/24 05:55:24;;;;;;;11.00;6.30;;;;;;;4.05;77.36;99384.19;239365;1199;23138;-73
2021/03/24 06:00:38;;;;;;;11.00;6.63;;;;;;;4.14;77.22;99381.99;239695;1199;23129;-73
2021/03/24 06:06:11;;;;;;;10.63;6.30;;;;;;;4.21;77.62;99375.55;239590;1199;26019;-75
2021/03/24 06:11:28;;;;;;;11.55;7.05;;;;;;;4.30;77.10;99375.20;239526;1196;23132;-73
2021/03/24 06:17:03;;;;;;;11.57;6.97;;;;;;;4.40;76.94;99383.37;239582;1195;26296;-72
2021/03/24 06:22:35;;;;;;;11.23;6.47;;;;;;;4.50;76.71;99380.92;239684;1196;26121;-71
2021/03/24 06:27:58;;;;;;;8.13;5.93;;;;;;;4.58;76.69;99390.38;239532;1196;23095;-73
2021/03/24 06:33:46;;;;;;;10.85;6.65;;;;;;;4.60;76.37;99391.77;239543;1196;23273;-73
2021/03/24 06:39:03;;;;;;;13.95;7.70;;;;;;;4.70;76.17;99385.04;239423;1196;23099;-73
2021/03/24 06:44:10;;;;;;;11.40;7.07;;;;;;;4.81;75.86;99392.16;240034;1196;23213;-73
2021/03/24 06:49:28;;;;;;;11.45;7.10;;;;;;;4.88;76.08;99406.14;239784;1196;23173;-73
2021/03/24 06:55:07;;;;;;;10.63;7.00;;;;;;;5.00;75.55;99408.74;241162;1196;23104;-73
2021/03/24 07:00:41;;;;;;;9.85;7.38;;;;;;;5.13;75.31;99408.48;239984;1196;23402;-74
2021/03/24 07:06:00;;;;;;;10.57;7.70;;;;;;;5.34;75.29;99408.04;240563;1196;23151;-73
2021/03/24 07:11:34;;;;;;;14.53;8.07;;;;;;;5.45;74.40;99407.18;240489;1195;27319;-73
2021/03/24 07:17:02;;;;;;;15.40;9.20;;;;;;;5.56;74.84;99414.28;240532;1196;23355;-74
2021/03/24 07:22:38;;;;;;;13.40;9.10;;;;;;;5.72;73.63;99411.88;240990;1196;23132;-74
2021/03/24 07:27:59;;;;;;;13.27;8.87;;;;;;;5.79;73.72;99415.19;240073;1196;25971;-73
2021/03/24 07:33:28;;;;;;;13.60;8.47;;;;;;;5.95;73.51;99409.08;240140;1196;23112;-74
2021/03/24 07:39:09;;;;;;;14.15;8.65;;;;;;;6.15;72.74;99410.47;241559;1196;23094;-74
2021/03/24 07:44:23;;;;;;;15.97;9.73;;;;;;;6.25;72.61;99431.89;239878;1196;23112;-73
2021/03/24 07:49:42;;;;;;;13.33;8.17;;;;;;;6.31;72.41;99428.27;239904;1196;23105;-74
2021/03/24 07:55:16;;;;;;;10.23;8.33;;;;;;;6.42;71.48;99431.07;239736;1196;23132;-73
2021/03/24 08:00:51;;;;;;;12.47;8.80;;;;;;;6.51;71.65;99445.58;239983;1196;23135;-73
2021/03/24 08:06:27;;;;;;;12.40;8.30;;;;;;;6.58;70.94;99438.23;240367;1196;23665;-73
2021/03/24 08:12:27;;;;;;;9.93;7.47;;;;;;;6.65;70.49;99440.72;240144;1196;23262;-73
2021/03/24 08:17:42;;;;;;;11.45;7.90;;;;;;;6.75;70.40;99442.71;239852;1196;23120;-73
2021/03/24 08:23:09;;;;;;;12.40;8.83;;;;;;;6.94;70.16;99446.69;239808;1196;23123;-73
2021/03/24 08:28:38;;;;;;;12.60;8.50;;;;;;;7.07;69.09;99445.50;240070;1196;23120;-74
2021/03/24 08:34:08;;;;;;;12.00;8.67;;;;;;;7.12;68.91;99442.08;240054;1195;23115;-74
2021/03/24 08:39:45;;;;;;;13.87;9.57;;;;;;;7.29;69.19;99432.16;239902;1196;23233;-75
2021/03/24 08:44:59;;;;;;;13.85;9.50;;;;;;;7.56;68.22;99435.91;239866;1196;23107;-74
2021/03/24 08:50:02;;;;;;;13.05;8.95;;;;;;;7.71;67.94;99423.50;240120;1196;23181;-74
2021/03/24 08:55:28;;;;;;;12.95;8.85;;;;;;;7.93;67.15;99425.27;240074;1196;23244;-75
2021/03/24 09:00:55;;;;;;;12.70;8.50;;;;;;;7.91;66.35;99418.61;239883;1195;23315;-74
2021/03/24 09:05:57;;;;;;;12.90;9.40;;;;;;;7.98;66.93;99416.52;239852;1196;23249;-74
2021/03/24 09:11:11;;;;;;;12.07;8.17;;;;;;;8.01;64.63;99408.80;239884;1196;23263;-74
2021/03/24 09:16:51;;;;;;;12.15;8.00;;;;;;;7.97;65.23;99415.70;239861;1196;24580;-75
2021/03/24 09:22:03;;;;;;;11.23;7.85;;;;;;;7.94;64.92;99410.88;239820;1196;23232;-74
2021/03/24 09:27:44;;;;;;;12.37;8.67;;;;;;;8.03;65.75;99409.36;239864;1196;23115;-75
2021/03/24 09:33:24;;;;;;;12.65;8.75;;;;;;;8.01;64.12;99406.13;239466;1196;23147;-73
2021/03/24 09:38:34;;;;;;;12.80;9.40;;;;;;;7.95;64.16;99407.16;240700;1195;23124;-75
2021/03/24 09:43:43;;;;;;;12.78;9.40;;;;;;;7.96;64.22;99402.62;239962;1196;23138;-73
2021/03/24 09:48:51;;;;;;;13.00;9.03;;;;;;;8.07;64.09;99400.84;239897;1196;26131;-74
2021/03/24 09:54:25;;;;;;;10.13;7.83;;;;;;;8.20;63.30;99395.07;239914;1196;23125;-73
2021/03/24 09:59:42;;;;;;;12.13;9.10;;;;;;;8.26;63.24;99395.91;240028;1196;23106;-72
2021/03/24 10:04:50;;;;;;;12.85;10.15;;;;;;;8.28;63.73;99394.59;239871;1196;23110;-73
2021/03/24 10:10:13;;;;;;;14.13;10.47;;;;;;;8.29;63.83;99385.50;240059;1196;23166;-74
2021/03/24 10:15:36;;;;;;;15.57;11.80;;;;;;;8.19;63.29;99391.58;239992;1196;23146;-73
2021/03/24 10:20:55;;;;;;;16.05;11.25;;;;;;;7.97;63.51;99388.23;240306;1196;23120;-74
2021/03/24 10:26:30;;;;;;;16.63;10.80;;;;;;;7.66;63.17;99386.11;239611;1195;23228;-73
2021/03/24 10:31:37;;;;;;;12.93;9.93;;;;;;;7.42;63.36;99385.64;239727;1197;23164;-74
2021/03/24 10:36:56;;;;;;;11.37;8.67;;;;;;;7.26;63.88;99376.70;240325;1196;23259;-74
2021/03/24 10:42:17;;;;;;;11.75;8.60;;;;;;;7.22;64.29;99383.59;240018;1196;23119;-73
2021/03/24 10:47:41;;;;;;;12.37;8.37;;;;;;;7.32;64.00;99366.90;240210;1196;23105;-73
2021/03/24 10:53:11;;;;;;;9.70;7.10;;;;;;;7.56;64.00;99371.91;240078;1197;23088;-74
2021/03/24 10:58:43;;;;;;;11.07;7.37;;;;;;;7.69;63.30;99374.14;239749;1196;23112;-74
2021/03/24 11:03:55;;;;;;;11.10;7.97;;;;;;;7.70;61.53;99371.22;240122;1194;23106;-74
2021/03/24 11:09:35;;;;;;;12.00;8.00;;;;;;;7.71;61.99;99377.38;240144;1196;23168;-74
2021/03/24 11:14:40;;;;;;;;;;;;;;;7.93;62.82;99371.91;242684;1200;23534;-73
2021/03/24 11:19:48;;;;;;;11.03;7.33;;;;;;;8.01;61.55;99371.44;241700;1196;21683;-73
2021/03/24 11:25:06;;;;;;;10.10;7.37;;;;;;;8.01;61.09;99365.31;241144;1196;23156;-76
2021/03/24 11:30:24;;;;;;;11.75;7.75;;;;;;;8.04;60.63;99362.95;239840;1199;23112;-74
2021/03/24 11:35:55;;;;;;;11.00;7.80;;;;;;;8.19;60.77;99356.09;240125;1195;23119;-74
2021/03/24 11:41:08;;;;;;;12.00;8.50;;;;;;;8.27;60.54;99352.94;239925;1196;23121;-73
2021/03/24 11:46:14;;;;;;;11.20;7.60;;;;;;;8.31;60.57;99350.54;239990;1199;23112;-73
2021/03/24 11:51:34;;;;;;;10.10;7.30;;;;;;;8.44;60.52;99347.41;240509;1196;23555;-74
2021/03/24 11:57:01;;;;;;;12.27;7.70;;;;;;;8.61;60.77;99344.58;240381;1196;23103;-72
2021/03/24 12:02:19;;;;;;;9.80;7.30;;;;;;;8.75;60.76;99334.21;240034;1196;23116;-73
2021/03/24 12:07:52;;;;;;;10.70;7.40;;;;;;;8.84;59.64;99343.34;240138;1199;23126;-73
2021/03/24 12:13:00;;;;;;;9.17;7.00;;;;;;;8.70;58.54;99337.67;239877;1196;23100;-74
2021/03/24 12:18:16;;;;;;;11.10;7.60;;;;;;;8.67;59.93;99335.50;240312;1195;23235;-72
2021/03/24 12:23:21;;;;;;;12.40;8.30;;;;;;;8.61;60.35;99331.22;240423;1196;26207;-72
2021/03/24 12:28:32;;;;;;;11.05;8.10;;;;;;;8.58;60.39;99342.43;239713;1196;27214;-72
2021/03/24 12:33:56;;;;;;;13.33;8.83;;;;;;;8.56;60.25;99336.53;240206;1195;23115;-72
2021/03/24 12:39:08;;;;;;;8.63;6.53;;;;;;;8.54;59.19;99341.34;242130;1196;23272;-73
2021/03/24 12:44:22;;;;;;;12.20;7.97;;;;;;;8.48;59.88;99334.36;245904;1196;22776;-73
2021/03/24 12:49:31;;;;;;;11.90;7.53;;;;;;;8.45;60.05;99335.70;240619;1196;23138;-74
2021/03/24 12:54:34;;;;;;;11.60;7.40;;;;;;;8.31;59.95;99338.02;241238;1196;23169;-73
2021/03/24 12:59:44;;;;;;;9.93;6.53;;;;;;;8.29;60.24;99336.66;243727;1197;23129;-73
2021/03/24 13:04:56;;;;;;;8.77;6.73;;;;;;;8.29;60.02;99331.32;241468;1196;23092;-75
2021/03/24 13:10:17;;;;;;;8.67;6.23;;;;;;;8.28;59.59;99319.03;240619;1196;23112;-75
2021/03/24 13:15:31;;;;;;;10.53;6.87;;;;;;;8.20;59.75;99323.02;240561;1196;23136;-78
2021/03/24 13:20:54;;;;;;;11.47;7.47;;;;;;;8.18;60.46;99320.61;239808;1196;23118;-74
2021/03/24 13:26:10;;;;;;;10.03;7.23;;;;;;;8.11;59.61;99316.55;240141;1196;28280;-73
2021/03/24 13:31:31;;;;;;;10.27;6.50;;;;;;;8.10;60.05;99313.08;239840;1196;23138;-75
2021/03/24 13:36:48;;;;;;;10.23;6.33;;;;;;;8.04;59.77;99317.59;239987;1196;23168;-75
2021/03/24 13:41:59;;;;;;;8.60;6.27;;;;;;;7.94;59.03;99314.05;240172;1199;23102;-75
2021/03/24 13:47:09;;;;;;;9.37;6.57;;;;;;;7.77;59.63;99307.00;239746;1196;23244;-75
2021/03/24 13:52:50;;;;;;;9.37;5.77;;;;;;;7.66;59.45;99308.78;240394;1196;23112;-77
2021/03/24 13:58:16;;;;;;;7.33;4.80;;;;;;;7.54;59.89;99310.82;240060;1196;23198;-76
2021/03/24 14:03:31;;;;;;;9.80;6.03;;;;;;;7.47;60.25;99302.23;239965;1196;23112;-76
2021/03/24 14:08:55;;;;;;;9.07;6.07;;;;;;;7.46;60.65;99308.65;239908;1199;23105;-75
2021/03/24 14:14:10;;;;;;;8.53;6.20;;;;;;;7.40;60.78;99302.47;240009;1196;26138;-76
2021/03/24 14:19:29;;;;;;;9.70;6.17;;;;;;;7.39;61.23;99300.03;240082;1195;23132;-74
2021/03/24 14:24:41;;;;;;;8.47;6.40;;;;;;;7.29;60.87;99306.08;239824;1196;23194;-75
2021/03/24 14:30:27;;;;;;;8.27;6.13;;;;;;;7.21;61.41;99301.24;240468;1194;23112;-76
2021/03/24 14:36:07;;;;;;;9.60;5.73;;;;;;;7.09;61.26;99302.17;240149;1196;23125;-75
2021/03/24 14:41:28;;;;;;;9.57;6.43;;;;;;;6.97;61.48;99296.22;240227;1195;23118;-76
2021/03/24 14:46:58;;;;;;;10.50;6.40;;;;;;;6.89;62.12;99289.47;239783;1196;27210;-75
2021/03/24 14:52:25;;;;;;;12.23;7.23;;;;;;;6.83;62.67;99290.48;239895;1196;23140;-74
2021/03/24 14:57:37;;;;;;;12.93;7.10;;;;;;;6.70;62.32;99286.34;239897;1196;23100;-74
2021/03/24 15:02:40;;;;;;;11.15;7.90;;;;;;;6.55;63.25;99294.16;240031;1196;23119;-75
2021/03/24 15:07:44;;;;;;;12.10;7.47;;;;;;;6.38;63.81;99294.23;245384;1196;23102;-74
2021/03/24 15:12:50;;;;;;;17.05;9.30;;;;;;;6.26;64.57;99297.02;239577;1196;23102;-75
2021/03/24 15:17:58;;;;;;;13.77;8.70;;;;;;;6.23;65.27;99298.31;239631;1197;23189;-74
2021/03/24 15:23:25;;;;;;;16.87;10.53;;;;;;;6.23;65.42;99290.33;239567;1196;23279;-75
2021/03/24 15:28:50;;;;;;;16.10;8.97;;;;;;;6.19;65.34;99293.74;239470;1199;23106;-75
2021/03/24 15:33:59;;;;;;;15.73;9.23;;;;;;;6.14;65.84;99297.94;239545;1196;23204;-74
2021/03/24 15:39:08;;;;;;;15.70;9.60;;;;;;;6.10;65.48;99294.16;239510;1199;23193;-74
2021/03/24 15:44:36;;;;;;;15.55;9.45;;;;;;;6.07;65.95;99296.50;239497;1199;25990;-75
2021/03/24 15:49:47;;;;;;;14.63;9.60;;;;;;;5.99;65.67;99298.53;239292;1196;23266;-74
2021/03/24 15:55:12;;;;;;;15.90;8.90;;;;;;;5.91;66.27;99306.09;239317;1196;23112;-75
2021/03/24 16:00:28;;;;;;;16.10;8.80;;;;;;;5.82;65.97;99300.40;239513;1196;23279;-76
2021/03/24 16:05:41;;;;;;;13.80;8.07;;;;;;;5.82;67.07;99303.06;239615;1193;23111;-74
2021/03/24 16:11:12;;;;;;;12.55;8.60;;;;;;;5.78;66.92;99299.27;239878;1196;23267;-75
2021/03/24 16:16:32;;;;;;;20.27;9.40;;;;;;;5.74;66.99;99306.92;239745;1198;23177;-74
2021/03/24 16:21:49;;;;;;;16.30;9.57;;;;;;;5.69;67.33;99309.48;239556;1195;23143;-75
2021/03/24 16:26:51;;;;;;;17.93;10.30;;;;;;;5.68;67.49;99313.22;239516;1196;23324;-74
2021/03/24 16:32:17;;;;;;;20.73;12.13;;;;;;;5.68;67.52;99313.22;239673;1199;23107;-75
2021/03/24 16:37:58;;;;;;;21.93;10.70;;;;;;;5.66;67.54;99316.09;239889;1193;23110;-75
2021/03/24 16:43:05;;;;;;;19.70;11.80;;;;;;;5.60;67.76;99311.76;239651;1193;23182;-74
2021/03/24 16:48:26;;;;;;;22.97;12.70;;;;;;;5.55;68.09;99309.01;239810;1193;23184;-73
2021/03/24 16:54:08;;;;;;;21.27;12.83;;;;;;;5.55;68.35;99311.67;240052;1193;23109;-75
2021/03/24 16:59:14;;;;;;;20.90;12.30;;;;;;;5.58;68.36;99310.38;239668;1193;23180;-75
2021/03/24 17:04:24;;;;;;;22.80;13.23;;;;;;;5.58;68.78;99315.70;239931;1193;23132;-74
2021/03/24 17:10:00;;;;;;;21.53;13.23;;;;;;;5.54;68.53;99320.70;239738;1196;23141;-74
2021/03/24 17:15:26;;;;;;;29.10;16.27;;;;;;;5.50;68.91;99322.23;239647;1193;23332;-73
2021/03/24 17:20:48;;;;;;;32.65;18.50;;;;;;;5.49;69.02;99320.63;239516;1193;25484;-75
2021/03/24 17:25:53;;;;;;;30.43;18.53;;;;;;;5.51;69.28;99325.69;239663;1196;23163;-75
2021/03/24 17:31:05;;;;;;;35.60;20.40;;;;;;;5.47;69.45;99323.52;239431;1196;23099;-74
2021/03/24 17:36:20;;;;;;;37.53;20.87;;;;;;;5.44;69.57;99334.64;240073;1194;23138;-73
2021/03/24 17:41:24;;;;;;;37.30;20.53;;;;;;;5.43;69.78;99326.91;240031;1193;23206;-74
2021/03/24 17:46:48;;;;;;;39.13;20.90;;;;;;;5.42;69.71;99325.29;239685;1193;23105;-74
2021/03/24 17:52:27;;;;;;;37.07;19.20;;;;;;;5.40;69.77;99322.05;239764;1199;23253;-75
2021/03/24 17:57:41;;;;;;;33.30;18.20;;;;;;;5.37;70.07;99319.88;239783;1193;23109;-74
2021/03/24 18:02:46;;;;;;;48.00;29.15;;;;;;;5.25;69.94;99326.07;239629;1196;23272;-74
2021/03/24 18:08:21;;;;;;;35.10;19.53;;;;;;;5.10;69.79;99318.63;239620;1193;23109;-76
2021/03/24 18:13:28;;;;;;;46.20;22.20;;;;;;;4.96;70.23;99312.81;239445;1196;23136;-75
2021/03/24 18:18:38;;;;;;;47.57;25.93;;;;;;;4.82;70.31;99311.49;239534;1199;23279;-74
2021/03/24 18:23:43;;;;;;;54.20;29.25;;;;;;;4.70;70.76;99316.03;239721;1193;23118;-73
2021/03/24 18:28:49;;;;;;;59.20;29.40;;;;;;;4.56;71.15;99303.05;239567;1196;23104;-75
2021/03/24 18:33:52;;;;;;;61.87;28.70;;;;;;;4.49;71.27;99307.70;239630;1199;24569;-74
2021/03/24 18:39:00;;;;;;;51.30;26.70;;;;;;;4.44;71.53;99311.03;239657;1196;26207;-74
2021/03/24 18:44:07;;;;;;;53.83;25.87;;;;;;;4.40;71.75;99309.09;239555;1193;27279;-75
2021/03/24 18:49:18;;;;;;;46.30;24.73;;;;;;;4.33;71.87;99311.07;239727;1193;23091;-75
2021/03/24 18:54:35;;;;;;;39.47;22.57;;;;;;;4.25;72.01;99310.39;239571;1194;23246;-74
2021/03/24 18:59:39;;;;;;;37.73;20.77;;;;;;;4.18;71.96;99306.24;239518;1193;23273;-75
2021/03/24 19:04:41;;;;;;;36.67;21.10;;;;;;;4.11;72.21;99309.84;239788;1193;23103;-75
2021/03/24 19:09:47;;;;;;;42.77;22.17;;;;;;;4.06;72.41;99309.72;239892;1193;23233;-75
2021/03/24 19:14:56;;;;;;;65.07;35.93;;;;;;;4.00;72.75;99315.13;239475;1196;23125;-74
2021/03/24 19:20:33;;;;;;;46.27;24.73;;;;;;;3.89;72.53;99309.62;239744;1196;23142;-76
2021/03/24 19:25:41;;;;;;;48.70;25.57;;;;;;;3.79;72.74;99314.67;239621;1193;23109;-74
2021/03/24 19:30:57;;;;;;;55.43;29.28;;;;;;;3.73;73.00;99308.45;239649;1193;23118;-75
2021/03/24 19:36:17;;;;;;;72.83;38.73;;;;;;;3.61;72.99;99307.66;239651;1196;23117;-74
2021/03/24 19:41:29;;;;;;;64.17;30.33;;;;;;;3.52;74.03;99309.02;239976;1193;23241;-74
2021/03/24 19:46:33;;;;;;;72.10;34.30;;;;;;;3.51;73.88;99321.47;239680;1194;23098;-73
2021/03/24 19:51:37;;;;;;;60.97;29.83;;;;;;;3.54;73.52;99321.01;239898;1193;26255;-75
2021/03/24 19:56:43;;;;;;;63.87;30.33;;;;;;;3.60;73.84;99314.78;239573;1196;23112;-74
2021/03/24 20:02:17;;;;;;;58.95;28.15;;;;;;;3.67;74.37;99321.83;239605;1193;23116;-75
2021/03/24 20:07:33;;;;;;;52.00;27.80;;;;;;;3.75;74.16;99311.69;239819;1196;23330;-75
2021/03/24 20:13:03;;;;;;;46.00;22.47;;;;;;;3.77;74.17;99320.20;239470;1197;23097;-74
2021/03/24 20:18:16;;;;;;;57.80;28.73;;;;;;;3.77;73.84;99319.41;239744;1196;23463;-73
2021/03/24 20:23:21;;;;;;;69.77;37.17;;;;;;;3.75;74.04;99329.45;239450;1196;23184;-74
2021/03/24 20:28:24;;;;;;;79.93;41.73;;;;;;;3.70;74.14;99327.46;239624;1196;23103;-75
2021/03/24 20:34:09;;;;;;;93.33;44.70;;;;;;;3.69;74.36;99330.34;239526;1196;25990;-74
2021/03/24 20:39:19;;;;;;;91.20;42.47;;;;;;;3.72;74.26;99324.58;239584;1199;23118;-74
2021/03/24 20:44:27;;;;;;;82.40;41.07;;;;;;;3.76;74.80;99326.56;239527;1196;23126;-74
2021/03/24 20:49:39;;;;;;;97.00;44.10;;;;;;;3.76;74.82;99323.91;239470;1199;23126;-75
2021/03/24 20:54:42;;;;;;;99.03;44.30;;;;;;;3.77;74.65;99332.66;239637;1196;24746;-74
2021/03/24 20:59:46;;;;;;;99.30;48.33;;;;;;;3.78;74.90;99331.63;239585;1196;23121;-74
2021/03/24 21:04:50;;;;;;;91.65;43.95;;;;;;;3.80;74.71;99326.89;239757;1196;23138;-74
2021/03/24 21:09:54;;;;;;;102.00;48.50;;;;;;;3.74;74.85;99322.52;239565;1196;26022;-74
2021/03/24 21:14:57;;;;;;;145.03;64.93;;;;;;;3.63;74.72;99329.42;239611;1198;23102;-75
2021/03/24 21:20:02;;;;;;;162.50;73.17;;;;;;;3.57;74.41;99325.84;239764;1193;23108;-75
2021/03/24 21:25:06;;;;;;;158.30;67.70;;;;;;;3.54;74.65;99320.18;239691;1199;26041;-75
2021/03/24 21:30:12;;;;;;;168.63;79.13;;;;;;;3.50;75.05;99327.80;239627;1193;23109;-74
2021/03/24 21:35:15;;;;;;;158.35;71.65;;;;;;;3.52;74.86;99331.01;239629;1193;23095;-74
2021/03/24 21:40:22;;;;;;;155.73;69.43;;;;;;;3.47;75.27;99328.26;239858;1193;23102;-75
2021/03/24 21:45:25;;;;;;;144.50;65.10;;;;;;;3.51;75.25;99326.77;239855;1199;23266;-75
2021/03/24 21:50:34;;;;;;;135.80;60.37;;;;;;;3.54;75.42;99328.13;239515;1199;27329;-74
2021/03/24 21:55:37;;;;;;;135.87;60.87;;;;;;;3.59;75.51;99325.61;239710;1196;26003;-74
2021/03/24 22:01:29;;;;;;;140.27;60.87;;;;;;;3.60;75.63;99325.38;239812;1193;23099;-74
2021/03/24 22:06:34;;;;;;;161.60;68.13;;;;;;;3.73;75.59;99320.91;239755;1193;23111;-75
2021/03/24 22:11:38;;;;;;;147.30;67.70;;;;;;;3.75;75.13;99322.29;239615;1193;23241;-75
2021/03/24 22:16:51;;;;;;;158.27;72.53;;;;;;;3.79;75.49;99316.52;239662;1193;23103;-74
2021/03/24 22:21:54;;;;;;;156.03;71.03;;;;;;;3.82;75.79;99308.94;239794;1193;23153;-74
2021/03/24 22:27:20;;;;;;;170.30;74.97;;;;;;;3.87;75.31;99310.88;239734;1193;23107;-75
2021/03/24 22:32:47;;;;;;;175.90;74.93;;;;;;;3.93;75.51;99309.95;239831;1193;23101;-74
2021/03/24 22:37:57;;;;;;;164.00;74.40;;;;;;;3.96;75.31;99308.68;239836;1196;23345;-74
2021/03/24 22:43:02;;;;;;;156.53;72.27;;;;;;;3.99;75.43;99302.91;239588;1196;23398;-73
2021/03/24 22:48:17;;;;;;;183.33;76.03;;;;;;;3.98;74.88;99304.77;239680;1199;26192;-74
2021/03/24 22:53:58;;;;;;;147.43;66.90;;;;;;;3.94;75.17;99301.79;239955;1196;26034;-73
2021/03/24 22:59:13;;;;;;;148.63;66.63;;;;;;;3.87;75.19;99301.08;239698;1193;23558;-74
2021/03/24 23:04:41;;;;;;;176.67;78.13;;;;;;;3.89;75.18;99303.48;239586;1196;23129;-75
2021/03/24 23:09:48;;;;;;;155.30;71.30;;;;;;;3.88;74.98;99293.95;239576;1196;26220;-73
2021/03/24 23:15:17;;;;;;;145.93;63.93;;;;;;;3.89;75.05;99293.72;239498;1196;23094;-74
2021/03/24 23:20:42;;;;;;;146.30;65.00;;;;;;;3.86;75.06;99283.58;239662;1193;26760;-73
2021/03/24 23:25:46;;;;;;;181.45;79.20;;;;;;;3.83;74.85;99277.92;239568;1199;23118;-75
2021/03/24 23:31:00;;;;;;;163.73;71.03;;;;;;;3.90;74.89;99279.43;239489;1199;23105;-73
2021/03/24 23:36:06;;;;;;;164.33;72.30;;;;;;;3.82;75.49;99273.66;239464;1193;23124;-74
2021/03/24 23:41:09;;;;;;;171.80;77.47;;;;;;;3.74;75.31;99270.31;239590;1193;23111;-73
2021/03/24 23:46:13;;;;;;;176.40;78.43;;;;;;;3.70;75.67;99261.22;239434;1193;23125;-74
2021/03/24 23:51:16;;;;;;;180.73;81.50;;;;;;;3.73;75.64;99265.25;239788;1193;23138;-73
2021/03/24 23:56:23;;;;;;;169.70;82.30;;;;;;;3.73;75.55;99263.40;239564;1196;23186;-74
